Time;durP1;ratioP1;P1;durP2;ratioP2;P2;SDS_P1;SDS_P2;PMS_P1;PMS_P2;Temp;Humidity;BMP_temperature;BMP_pressure;BME280_temperature;BME280_humidity;BME280_pressure;Samples;Min_cycle;Max_cycle;Signal;HPM_P1;HPM_P2
2023/09/04 00:00:08;;;;;;;6.87;4.00;;;;;;;;;;5058411;28;20185;-73
2023/09/04 00:02:43;;;;;;;6.30;3.73;;;;;;;;;;5042770;28;20213;-72
2023/09/04 00:09:10;;;;;;;5.47;3.00;;;;;;;;;;5075508;28;20615;-72
2023/09/04 00:11:37;;;;;;;4.93;3.27;;;;;;;;;;5057932;28;20268;-72
2023/09/04 00:14:03;;;;;;;7.03;3.40;;;;;;;;;;5041593;28;20682;-73
2023/09/04 00:16:31;;;;;;;6.90;3.37;;;;;;;;;;5041638;28;20283;-72
2023/09/04 00:23:15;;;;;;;5.23;2.70;;;;;;;;;;5075363;28;20145;-72
2023/09/04 00:29:35;;;;;;;3.87;2.70;;;;;;;;;;5075303;28;20242;-72
2023/09/04 00:32:02;;;;;;;7.53;3.23;;;;;;;;;;5058236;28;20224;-72
2023/09/04 00:34:29;;;;;;;4.10;2.70;;;;;;;;;;5058167;28;20186;-72
2023/09/04 00:40:55;;;;;;;9.30;5.57;;;;;;;;;;5074768;28;20240;-73
2023/09/04 00:43:22;;;;;;;4.40;3.33;;;;;;;;;;5040395;28;20286;-72
2023/09/04 00:45:48;;;;;;;5.20;3.00;;;;;;;;;;5040492;28;20516;-72
2023/09/04 00:48:15;;;;;;;5.40;3.60;;;;;;;;;;5075697;28;20190;-72
2023/09/04 00:50:42;;;;;;;4.77;2.93;;;;;;;;;;5040623;28;20259;-72
2023/09/04 00:53:27;;;;;;;5.47;3.53;;;;;;;;;;5059722;28;20154;-73
2023/09/04 00:55:54;;;;;;;6.77;3.60;;;;;;;;;;5057216;28;20273;-73
2023/09/04 00:58:38;;;;;;;6.50;3.90;;;;;;;;;;5060108;28;20165;-73
2023/09/04 01:01:05;;;;;;;5.40;3.23;;;;;;;;;;5057157;28;20221;-73
2023/09/04 01:03:31;;;;;;;6.30;3.33;;;;;;;;;;5074506;28;20190;-72
2023/09/04 01:05:59;;;;;;;6.33;3.60;;;;;;;;;;5040390;28;20221;-73
2023/09/04 01:08:25;;;;;;;6.67;3.73;;;;;;;;;;5056976;28;20189;-72
2023/09/04 01:51:06;;;;;;;9.77;4.33;;;;;;;;;;5073805;28;20192;-73
2023/09/04 01:53:33;;;;;;;6.30;3.23;;;;;;;;;;5038923;28;20637;-73
2023/09/04 01:56:00;;;;;;;7.07;3.87;;;;;;;;;;5056137;28;20520;-72
2023/09/04 01:58:28;;;;;;;7.37;3.60;;;;;;;;;;5073909;28;20182;-72
2023/09/04 02:00:54;;;;;;;7.63;3.77;;;;;;;;;;5055725;28;20194;-72
2023/09/04 02:03:21;;;;;;;9.03;4.80;;;;;;;;;;5056404;28;20280;-72
2023/09/04 02:05:48;;;;;;;8.70;4.60;;;;;;;;;;5055868;28;20194;-72
2023/09/04 02:08:15;;;;;;;14.23;6.50;;;;;;;;;;5040223;28;20198;-72
2023/09/04 02:10:42;;;;;;;10.83;5.50;;;;;;;;;;5074405;28;20232;-72
2023/09/04 02:13:08;;;;;;;8.20;4.50;;;;;;;;;;5055665;28;20197;-72
2023/09/04 02:15:35;;;;;;;12.47;4.90;;;;;;;;;;5055750;28;20289;-72
2023/09/04 02:18:02;;;;;;;8.27;4.23;;;;;;;;;;5055993;28;20182;-72
2023/09/04 02:20:29;;;;;;;7.43;4.00;;;;;;;;;;5055808;28;20190;-73
2023/09/04 02:22:56;;;;;;;10.03;3.90;;;;;;;;;;5038816;28;20545;-73
2023/09/04 02:25:23;;;;;;;9.50;3.57;;;;;;;;;;5055858;28;20272;-72
2023/09/04 02:27:50;;;;;;;7.53;3.70;;;;;;;;;;5055603;28;20228;-72
2023/09/04 02:30:17;;;;;;;9.87;3.67;;;;;;;;;;5055911;28;20182;-72
2023/09/04 02:32:44;;;;;;;7.80;3.80;;;;;;;;;;5055857;28;20274;-72
2023/09/04 02:35:10;;;;;;;10.17;3.70;;;;;;;;;;5073484;28;20269;-72
2023/09/04 02:37:37;;;;;;;10.37;3.97;;;;;;;;;;5038955;28;20202;-72
2023/09/04 02:40:21;;;;;;;11.20;4.60;;;;;;;;;;5055426;28;20787;-72
2023/09/04 02:42:48;;;;;;;10.03;4.30;;;;;;;;;;5055971;28;20273;-73
2023/09/04 02:49:08;;;;;;;8.63;4.53;;;;;;;;;;5073243;28;20157;-73
2023/09/04 02:51:35;;;;;;;11.17;5.67;;;;;;;;;;5055242;28;20214;-73
2023/09/04 02:58:01;;;;;;;9.03;4.57;;;;;;;;;;5073026;28;20196;-73
2023/09/04 03:00:29;;;;;;;11.47;3.93;;;;;;;;;;5055621;28;20256;-72
2023/09/04 03:02:55;;;;;;;12.00;4.20;;;;;;;;;;5072941;28;20186;-73
2023/09/04 03:05:24;;;;;;;11.60;4.67;;;;;;;;;;5057904;28;20271;-72
2023/09/04 03:07:51;;;;;;;7.50;4.30;;;;;;;;;;5059165;28;20190;-72
2023/09/04 03:10:18;;;;;;;10.53;4.40;;;;;;;;;;5075599;28;20218;-73
2023/09/04 03:12:47;;;;;;;9.90;4.60;;;;;;;;;;5041851;28;20233;-70
2023/09/04 03:19:16;;;;;;;10.50;4.47;;;;;;;;;;5064299;28;20177;-72
2023/09/04 03:21:44;;;;;;;7.67;4.53;;;;;;;;;;5022510;28;20225;-71
2023/09/04 03:28:28;;;;;;;8.80;3.90;;;;;;;;;;5056366;28;20150;-71
2023/09/04 03:30:56;;;;;;;5.53;3.63;;;;;;;;;;5039450;28;20198;-71
2023/09/04 03:37:23;;;;;;;7.47;3.90;;;;;;;;;;5076973;28;20590;-71
2023/09/04 03:39:50;;;;;;;10.10;4.30;;;;;;;;;;5058771;28;20224;-72
2023/09/04 03:42:34;;;;;;;6.83;3.60;;;;;;;;;;5058403;28;20264;-71
2023/09/04 03:49:01;;;;;;;10.07;4.17;;;;;;;;;;5076160;28;20214;-72
2023/09/04 03:55:27;;;;;;;6.57;3.97;;;;;;;;;;5075955;28;20172;-71
2023/09/04 03:57:54;;;;;;;11.80;3.80;;;;;;;;;;5058509;28;20200;-71
2023/09/04 04:00:22;;;;;;;8.17;4.03;;;;;;;;;;5058734;28;20189;-72
2023/09/04 04:02:51;;;;;;;10.70;3.77;;;;;;;;;;5074828;28;20185;-70
2023/09/04 04:13:24;;;;;;;6.77;3.90;;;;;;;;;;5075322;28;20252;-72
2023/09/04 04:15:51;;;;;;;9.20;4.03;;;;;;;;;;5058423;28;20247;-72
2023/09/04 04:18:18;;;;;;;7.97;4.07;;;;;;;;;;5058294;28;20201;-72
2023/09/04 04:20:45;;;;;;;7.37;3.50;;;;;;;;;;5058185;28;20185;-72
2023/09/04 04:23:12;;;;;;;10.00;3.70;;;;;;;;;;5025255;28;20284;-73
2023/09/04 04:25:41;;;;;;;9.07;3.87;;;;;;;;;;5058639;28;20197;-72
2023/09/04 04:28:07;;;;;;;8.70;3.80;;;;;;;;;;5041581;28;20220;-72
2023/09/04 04:30:52;;;;;;;6.60;3.60;;;;;;;;;;5030229;28;20174;-72
2023/09/04 04:33:19;;;;;;;7.33;3.63;;;;;;;;;;5057686;28;20186;-73
2023/09/04 04:35:50;;;;;;;8.20;3.77;;;;;;;;;;5041294;28;20186;-72
2023/09/04 04:42:10;;;;;;;9.07;3.90;;;;;;;;;;5091558;28;20215;-74
2023/09/04 04:44:38;;;;;;;7.33;3.87;;;;;;;;;;5077822;28;20193;-72
2023/09/04 04:50:59;;;;;;;7.40;3.83;;;;;;;;;;5095141;28;20153;-72
2023/09/04 04:57:28;;;;;;;10.23;4.27;;;;;;;;;;5095023;28;20156;-72
2023/09/04 04:59:56;;;;;;;7.50;4.03;;;;;;;;;;5077322;28;20189;-72
2023/09/04 05:06:22;;;;;;;10.00;4.20;;;;;;;;;;5095085;28;20219;-71
2023/09/04 05:08:50;;;;;;;10.33;4.20;;;;;;;;;;5093794;28;20178;-72
2023/09/04 05:11:17;;;;;;;10.77;4.00;;;;;;;;;;5076880;28;20699;-70
2023/09/04 05:13:45;;;;;;;14.00;4.47;;;;;;;;;;5076793;28;20229;-73
2023/09/04 05:16:16;;;;;;;13.83;4.57;;;;;;;;;;5077656;28;20186;-73
2023/09/04 05:18:44;;;;;;;9.67;4.10;;;;;;;;;;5076802;28;20184;-72
2023/09/04 05:21:12;;;;;;;9.87;3.93;;;;;;;;;;5060568;28;20190;-72
2023/09/04 05:23:39;;;;;;;7.37;3.83;;;;;;;;;;5076876;28;20189;-73
2023/09/04 05:26:11;;;;;;;10.03;4.30;;;;;;;;;;5076589;28;20235;-71
2023/09/04 05:32:47;;;;;;;7.20;3.67;;;;;;;;;;5095232;28;20230;-77
2023/09/04 05:35:19;;;;;;;8.27;3.37;;;;;;;;;;5063188;28;20188;-82
2023/09/04 05:41:40;;;;;;;7.13;4.07;;;;;;;;;;5095639;28;20194;-76
2023/09/04 05:44:08;;;;;;;10.37;3.70;;;;;;;;;;5078212;28;20260;-76
2023/09/04 05:46:34;;;;;;;11.53;4.00;;;;;;;;;;5077130;28;20191;-82
2023/09/04 05:52:56;;;;;;;8.73;3.10;;;;;;;;;;5095168;28;20248;-79
2023/09/04 05:55:23;;;;;;;9.07;3.67;;;;;;;;;;5095149;28;20193;-78
2023/09/04 05:57:52;;;;;;;5.97;3.50;;;;;;;;;;5096211;28;20261;-75
2023/09/04 06:00:21;;;;;;;6.80;3.57;;;;;;;;;;5060819;28;20701;-75
2023/09/04 06:06:49;;;;;;;6.13;3.13;;;;;;;;;;5095559;28;20247;-77
2023/09/04 06:09:17;;;;;;;8.30;3.33;;;;;;;;;;5059838;28;20189;-75
2023/09/04 06:11:44;;;;;;;10.57;3.57;;;;;;;;;;5094265;28;20201;-74
2023/09/04 06:14:13;;;;;;;7.83;3.33;;;;;;;;;;5060052;28;20221;-77
2023/09/04 06:16:43;;;;;;;9.50;3.07;;;;;;;;;;5076983;28;20192;-77
2023/09/04 06:19:31;;;;;;;9.40;3.30;;;;;;;;;;5078112;28;20517;-76
2023/09/04 06:21:58;;;;;;;6.93;3.50;;;;;;;;;;5093990;28;20193;-76
2023/09/04 06:24:26;;;;;;;6.03;3.20;;;;;;;;;;5095020;28;20235;-78
2023/09/04 06:31:01;;;;;;;6.70;2.70;;;;;;;;;;5094401;28;20228;-83
2023/09/04 06:33:32;;;;;;;5.17;2.70;;;;;;;;;;5077126;28;20228;-84
2023/09/04 06:35:59;;;;;;;9.30;3.43;;;;;;;;;;5094196;28;20273;-75
2023/09/04 06:38:26;;;;;;;7.83;2.70;;;;;;;;;;5077241;28;20181;-83
2023/09/04 06:40:57;;;;;;;7.63;2.93;;;;;;;;;;5063332;28;20524;-78
2023/09/04 06:47:42;;;;;;;7.67;2.80;;;;;;;;;;5099381;28;20496;-73
2023/09/04 06:50:14;;;;;;;6.40;2.77;;;;;;;;;;5063915;28;20194;-74
2023/09/04 06:56:45;;;;;;;7.23;3.20;;;;;;;;;;5100214;28;20229;-74
2023/09/04 06:59:19;;;;;;;5.90;2.37;;;;;;;;;;5080899;28;20197;-77
2023/09/04 07:05:51;;;;;;;5.20;2.90;;;;;;;;;;5101416;28;20168;-86
2023/09/04 07:08:18;;;;;;;5.33;3.17;;;;;;;;;;5084202;28;20516;-74
2023/09/04 07:10:47;;;;;;;6.07;2.77;;;;;;;;;;5080014;28;20284;-77
2023/09/04 07:13:19;;;;;;;5.73;2.73;;;;;;;;;;5063947;28;20545;-75
2023/09/04 07:15:52;;;;;;;6.97;3.40;;;;;;;;;;5066892;28;20222;-81
2023/09/04 07:18:20;;;;;;;6.97;3.07;;;;;;;;;;5085296;28;20302;-76
2023/09/04 07:20:47;;;;;;;7.23;3.47;;;;;;;;;;5079428;28;20224;-74
2023/09/04 07:27:15;;;;;;;4.93;2.70;;;;;;;;;;5098806;28;20242;-76
2023/09/04 07:29:42;;;;;;;6.20;2.70;;;;;;;;;;5079482;28;20197;-73
2023/09/04 07:32:09;;;;;;;10.73;3.10;;;;;;;;;;5097380;28;20209;-73
2023/09/04 07:34:37;;;;;;;7.40;2.60;;;;;;;;;;5078811;28;20279;-73
2023/09/04 07:37:05;;;;;;;6.70;2.70;;;;;;;;;;5096336;28;20181;-72
2023/09/04 07:39:32;;;;;;;6.37;2.60;;;;;;;;;;5079166;28;20280;-72
2023/09/04 07:46:00;;;;;;;5.43;2.33;;;;;;;;;;5096731;28;20168;-73
2023/09/04 07:48:27;;;;;;;8.13;2.50;;;;;;;;;;5080252;28;20187;-72
2023/09/04 07:55:11;;;;;;;5.00;2.10;;;;;;;;;;5096692;28;20165;-75
2023/09/04 08:01:49;;;;;;;4.03;2.20;;;;;;;;;;5096401;28;20164;-75
2023/09/04 08:04:33;;;;;;;7.13;2.13;;;;;;;;;;5078670;28;20218;-76
2023/09/04 08:07:00;;;;;;;4.00;2.13;;;;;;;;;;5078757;28;20189;-75
2023/09/04 08:09:27;;;;;;;5.53;2.00;;;;;;;;;;5078807;28;20603;-76
2023/09/04 08:16:01;;;;;;;4.60;1.80;;;;;;;;;;5096092;28;20270;-75
2023/09/04 08:18:28;;;;;;;3.67;1.70;;;;;;;;;;5096101;28;20192;-75
2023/09/04 08:20:54;;;;;;;4.87;2.30;;;;;;;;;;5096237;28;20642;-77
2023/09/04 08:23:21;;;;;;;6.13;2.20;;;;;;;;;;5077728;28;20177;-68
2023/09/04 08:29:50;;;;;;;3.67;2.00;;;;;;;;;;5095667;28;20240;-67
2023/09/04 08:36:16;;;;;;;3.87;2.33;;;;;;;;;;5095823;28;20183;-74
2023/09/04 08:42:42;;;;;;;3.10;1.90;;;;;;;;;;5095475;28;20524;-75
2023/09/04 08:45:09;;;;;;;4.33;1.73;;;;;;;;;;5094408;28;20694;-74
2023/09/04 08:47:37;;;;;;;5.43;2.30;;;;;;;;;;5060931;28;20192;-74
2023/09/04 08:50:04;;;;;;;5.90;2.23;;;;;;;;;;5094048;28;20185;-75
2023/09/04 08:52:31;;;;;;;5.50;2.27;;;;;;;;;;5077449;28;20208;-74
2023/09/04 08:54:58;;;;;;;4.93;2.00;;;;;;;;;;5077393;28;20644;-74
2023/09/04 08:57:25;;;;;;;5.03;1.83;;;;;;;;;;5095233;28;20627;-74
2023/09/04 08:59:52;;;;;;;3.43;1.93;;;;;;;;;;5095347;28;20185;-74
2023/09/04 09:02:18;;;;;;;5.50;2.03;;;;;;;;;;5077224;28;20617;-74
2023/09/04 09:04:45;;;;;;;3.83;1.43;;;;;;;;;;5093866;28;20189;-75
2023/09/04 09:07:12;;;;;;;3.30;1.60;;;;;;;;;;5095149;28;20181;-73
2023/09/04 09:09:41;;;;;;;4.07;1.40;;;;;;;;;;5076984;28;20556;-75
2023/09/04 09:12:08;;;;;;;3.33;1.70;;;;;;;;;;5095161;28;20202;-75
2023/09/04 09:14:35;;;;;;;3.97;2.00;;;;;;;;;;5077709;28;20549;-74
2023/09/04 09:17:03;;;;;;;3.87;2.13;;;;;;;;;;5094744;28;20189;-74
2023/09/04 09:19:33;;;;;;;3.43;1.80;;;;;;;;;;5094713;28;20251;-74
2023/09/04 09:22:16;;;;;;;3.60;1.90;;;;;;;;;;5076742;28;20189;-74
2023/09/04 09:24:52;;;;;;;3.27;1.70;;;;;;;;;;5077184;28;20626;-74
2023/09/04 09:27:20;;;;;;;3.40;2.17;;;;;;;;;;5093815;28;20183;-74
2023/09/04 09:30:05;;;;;;;10.17;2.17;;;;;;;;;;5054719;28;20171;-74
2023/09/04 09:32:32;;;;;;;4.77;2.07;;;;;;;;;;5053948;28;20248;-74
2023/09/04 09:35:00;;;;;;;4.00;2.30;;;;;;;;;;5019953;28;20293;-74
2023/09/04 09:37:32;;;;;;;5.93;1.93;;;;;;;;;;5036118;28;20190;-74
2023/09/04 09:39:59;;;;;;;4.13;2.00;;;;;;;;;;5053683;28;20272;-74
2023/09/04 09:45:50;;;;;;;6.80;2.30;;;;;;;;;;5054346;28;20229;-75
2023/09/04 09:48:20;;;;;;;3.23;1.87;;;;;;;;;;5053911;28;20179;-76
2023/09/04 09:50:47;;;;;;;3.53;1.90;;;;;;;;;;5036273;28;20232;-75
2023/09/04 09:57:14;;;;;;;5.67;2.60;;;;;;;;;;5051373;28;20299;-75
2023/09/04 09:59:42;;;;;;;5.20;2.17;;;;;;;;;;5036037;28;20195;-74
2023/09/04 10:02:09;;;;;;;3.87;2.10;;;;;;;;;;5054081;28;20190;-73
2023/09/04 10:08:37;;;;;;;4.97;2.30;;;;;;;;;;5053905;28;20221;-73
2023/09/04 10:11:10;;;;;;;4.80;2.20;;;;;;;;;;5036009;28;20276;-74
2023/09/04 10:13:58;;;;;;;5.70;2.13;;;;;;;;;;5038253;28;20218;-73
2023/09/04 10:16:28;;;;;;;3.70;2.20;;;;;;;;;;5016027;28;20666;-74
2023/09/04 10:19:13;;;;;;;2.43;1.87;;;;;;;;;;5032609;28;20160;-74
2023/09/04 10:25:55;;;;;;;3.80;2.10;;;;;;;;;;5026824;28;20243;-74
2023/09/04 10:28:25;;;;;;;4.83;2.37;;;;;;;;;;5016291;28;20282;-74
2023/09/04 10:31:10;;;;;;;4.83;2.00;;;;;;;;;;5016302;28;20195;-74
2023/09/04 10:33:37;;;;;;;3.87;2.10;;;;;;;;;;5033750;28;20206;-75
2023/09/04 10:36:05;;;;;;;4.37;2.03;;;;;;;;;;5033552;28;20191;-75
2023/09/04 10:38:31;;;;;;;4.67;2.10;;;;;;;;;;5034040;28;20187;-74
2023/09/04 10:44:53;;;;;;;4.57;2.23;;;;;;;;;;5033549;28;20206;-74
2023/09/04 10:47:21;;;;;;;4.23;1.90;;;;;;;;;;5033573;28;20222;-74
2023/09/04 10:49:48;;;;;;;6.53;2.10;;;;;;;;;;5032994;28;20611;-74
2023/09/04 10:52:15;;;;;;;3.87;2.03;;;;;;;;;;5015808;28;20559;-74
2023/09/04 10:54:42;;;;;;;3.57;1.90;;;;;;;;;;5033892;28;20188;-74
2023/09/04 10:57:12;;;;;;;5.93;2.23;;;;;;;;;;5032463;28;20191;-73
2023/09/04 10:59:52;;;;;;;3.87;2.03;;;;;;;;;;5015912;28;20257;-75
2023/09/04 11:02:27;;;;;;;6.43;2.00;;;;;;;;;;5015853;28;20187;-75
2023/09/04 11:04:55;;;;;;;5.50;2.10;;;;;;;;;;5015731;28;20186;-74
2023/09/04 11:07:39;;;;;;;4.53;1.93;;;;;;;;;;5016358;28;20168;-73
2023/09/04 11:10:17;;;;;;;3.93;2.00;;;;;;;;;;5032033;28;20504;-74
2023/09/04 11:16:39;;;;;;;4.33;2.10;;;;;;;;;;5052844;28;20314;-74
2023/09/04 11:19:24;;;;;;;3.30;1.93;;;;;;;;;;5038132;28;20525;-74
2023/09/04 11:21:51;;;;;;;6.70;1.77;;;;;;;;;;5053256;28;20190;-74
2023/09/04 11:24:22;;;;;;;4.20;1.73;;;;;;;;;;5051623;28;20171;-74
2023/09/04 11:26:49;;;;;;;2.97;1.60;;;;;;;;;;5037933;28;20191;-74
2023/09/04 11:29:16;;;;;;;4.60;1.80;;;;;;;;;;5056657;28;20239;-74
2023/09/04 11:31:43;;;;;;;3.23;1.73;;;;;;;;;;5040929;28;20234;-75
2023/09/04 11:34:24;;;;;;;2.50;1.50;;;;;;;;;;5056982;28;20283;-74
2023/09/04 11:36:51;;;;;;;2.73;1.70;;;;;;;;;;5055352;28;20199;-74
2023/09/04 11:39:21;;;;;;;4.97;1.90;;;;;;;;;;5039169;28;20286;-75
2023/09/04 11:41:49;;;;;;;3.80;2.10;;;;;;;;;;5038710;28;20185;-75
2023/09/04 11:44:16;;;;;;;3.30;1.80;;;;;;;;;;5022731;28;20646;-74
2023/09/04 11:46:43;;;;;;;2.90;1.67;;;;;;;;;;5056623;28;20231;-74
2023/09/04 11:49:10;;;;;;;3.23;1.70;;;;;;;;;;5038464;28;20182;-74
2023/09/04 11:51:38;;;;;;;4.10;2.20;;;;;;;;;;5056010;28;20181;-74
2023/09/04 11:54:06;;;;;;;4.50;1.90;;;;;;;;;;5038729;28;20254;-74
2023/09/04 11:56:33;;;;;;;3.50;1.90;;;;;;;;;;5056825;28;20497;-72
2023/09/04 11:59:04;;;;;;;3.00;1.77;;;;;;;;;;5038434;28;20546;-75
2023/09/04 12:01:32;;;;;;;4.80;2.00;;;;;;;;;;5038390;28;20190;-75
2023/09/04 12:04:02;;;;;;;3.53;1.53;;;;;;;;;;5056054;28;20647;-75
2023/09/04 12:06:30;;;;;;;5.03;1.93;;;;;;;;;;5022010;28;20247;-75
2023/09/04 12:08:57;;;;;;;2.57;1.67;;;;;;;;;;5021831;28;20200;-75
2023/09/04 12:11:27;;;;;;;3.80;1.63;;;;;;;;;;5038084;28;20598;-74
2023/09/04 12:17:48;;;;;;;1.80;1.57;;;;;;;;;;5054708;28;20278;-74
2023/09/04 12:20:16;;;;;;;3.87;1.60;;;;;;;;;;5021809;28;20194;-75
2023/09/04 12:22:53;;;;;;;4.47;1.73;;;;;;;;;;5037886;28;20702;-75
2023/09/04 12:25:22;;;;;;;5.07;1.70;;;;;;;;;;5055818;28;20184;-74
2023/09/04 12:27:49;;;;;;;4.13;1.70;;;;;;;;;;5056455;28;20552;-75
2023/09/04 12:30:21;;;;;;;6.17;1.70;;;;;;;;;;5055077;28;20178;-74
2023/09/04 12:32:49;;;;;;;2.77;1.80;;;;;;;;;;5055310;28;20519;-74
2023/09/04 12:35:18;;;;;;;3.03;1.40;;;;;;;;;;5054056;28;20186;-74
2023/09/04 12:37:45;;;;;;;2.37;1.50;;;;;;;;;;5036967;28;20206;-74
2023/09/04 12:40:12;;;;;;;4.53;1.70;;;;;;;;;;5037940;28;20196;-74
2023/09/04 12:42:39;;;;;;;3.53;2.00;;;;;;;;;;5053979;28;20183;-74
2023/09/04 12:45:07;;;;;;;4.13;1.63;;;;;;;;;;5037636;28;20291;-74
2023/09/04 12:47:34;;;;;;;2.60;1.47;;;;;;;;;;5038422;28;20619;-74
2023/09/04 12:50:01;;;;;;;2.43;1.40;;;;;;;;;;5055546;28;20244;-74
2023/09/04 12:52:29;;;;;;;2.50;1.37;;;;;;;;;;5055060;28;20304;-74
2023/09/04 12:55:14;;;;;;;2.60;1.63;;;;;;;;;;5040371;28;20209;-75
2023/09/04 12:57:40;;;;;;;2.17;1.60;;;;;;;;;;5053651;28;20636;-74
2023/09/04 13:00:09;;;;;;;5.20;1.90;;;;;;;;;;5021103;28;20218;-74
2023/09/04 13:02:36;;;;;;;3.30;1.83;;;;;;;;;;5054841;28;20188;-74
2023/09/04 13:05:04;;;;;;;3.40;1.70;;;;;;;;;;5037078;28;20191;-74
2023/09/04 13:07:32;;;;;;;3.83;2.00;;;;;;;;;;5036062;28;20201;-73
2023/09/04 13:10:00;;;;;;;3.10;1.63;;;;;;;;;;5020107;28;20194;-73
2023/09/04 13:12:28;;;;;;;3.80;1.50;;;;;;;;;;5037051;28;20592;-75
2023/09/04 13:22:58;;;;;;;5.00;1.60;;;;;;;;;;5055071;28;20750;-72
2023/09/04 13:25:25;;;;;;;4.57;1.40;;;;;;;;;;5055134;28;20197;-81
2023/09/04 13:27:52;;;;;;;2.57;1.20;;;;;;;;;;5038223;28;20218;-76
2023/09/04 13:34:19;;;;;;;2.93;1.70;;;;;;;;;;5056096;28;20193;-75
2023/09/04 13:36:45;;;;;;;1.77;1.43;;;;;;;;;;5037834;28;20183;-73
2023/09/04 13:39:30;;;;;;;5.43;1.97;;;;;;;;;;5055508;28;20154;-76
2023/09/04 13:45:57;;;;;;;6.20;1.40;;;;;;;;;;5054548;28;20206;-75
2023/09/04 13:48:24;;;;;;;3.13;1.10;;;;;;;;;;5055051;28;20191;-75
2023/09/04 13:50:51;;;;;;;5.73;1.70;;;;;;;;;;5054724;28;20189;-76
2023/09/04 13:53:18;;;;;;;2.33;1.10;;;;;;;;;;5054423;28;20204;-76
2023/09/04 13:55:47;;;;;;;6.50;1.60;;;;;;;;;;5036869;28;20182;-77
2023/09/04 13:58:14;;;;;;;2.10;1.20;;;;;;;;;;5037147;28;20206;-76
2023/09/04 14:00:41;;;;;;;3.50;1.27;;;;;;;;;;5036938;28;20195;-75
2023/09/04 14:03:11;;;;;;;2.37;1.40;;;;;;;;;;5036522;28;20218;-76
2023/09/04 14:05:38;;;;;;;3.57;1.40;;;;;;;;;;5020443;28;20186;-75
2023/09/04 14:08:06;;;;;;;3.10;1.30;;;;;;;;;;5037486;28;20187;-75
2023/09/04 14:10:38;;;;;;;7.30;1.63;;;;;;;;;;5036494;28;20192;-75
2023/09/04 14:13:06;;;;;;;2.80;1.23;;;;;;;;;;5021473;28;20218;-74
2023/09/04 14:15:33;;;;;;;3.37;1.80;;;;;;;;;;5053978;28;20186;-74
2023/09/04 14:18:02;;;;;;;3.07;2.00;;;;;;;;;;5038240;28;20260;-74
2023/09/04 14:20:32;;;;;;;3.97;2.20;;;;;;;;;;5037354;28;20196;-73
2023/09/04 14:22:59;;;;;;;6.00;2.40;;;;;;;;;;5035837;28;20187;-74
2023/09/04 14:25:27;;;;;;;2.87;1.40;;;;;;;;;;5035987;28;20195;-72
2023/09/04 14:28:11;;;;;;;2.67;1.10;;;;;;;;;;5036108;28;20269;-73
2023/09/04 14:30:38;;;;;;;3.27;1.43;;;;;;;;;;5035682;28;20188;-73
2023/09/04 14:33:05;;;;;;;6.83;1.80;;;;;;;;;;5035889;28;20297;-73
2023/09/04 14:35:33;;;;;;;6.23;1.53;;;;;;;;;;5053383;28;20208;-73
2023/09/04 14:38:00;;;;;;;3.77;1.20;;;;;;;;;;5036146;28;20271;-72
2023/09/04 14:40:47;;;;;;;3.63;1.30;;;;;;;;;;5024574;28;20163;-72
2023/09/04 14:43:14;;;;;;;4.10;1.43;;;;;;;;;;5053832;28;20236;-74
2023/09/04 14:45:41;;;;;;;2.37;1.40;;;;;;;;;;5053864;28;20237;-73
2023/09/04 14:48:19;;;;;;;3.17;1.30;;;;;;;;;;5035883;28;20276;-72
2023/09/04 14:51:03;;;;;;;3.73;1.20;;;;;;;;;;5022556;28;20255;-72
2023/09/04 14:53:30;;;;;;;2.23;1.30;;;;;;;;;;5035739;28;20248;-72
2023/09/04 14:55:58;;;;;;;2.97;1.30;;;;;;;;;;5019670;28;20195;-72
2023/09/04 14:58:26;;;;;;;3.57;1.33;;;;;;;;;;5035656;28;20199;-73
2023/09/04 15:00:53;;;;;;;5.83;2.50;;;;;;;;;;5038045;28;20187;-74
2023/09/04 15:03:20;;;;;;;6.27;2.53;;;;;;;;;;5056427;28;20195;-74
2023/09/04 15:05:47;;;;;;;2.90;1.30;;;;;;;;;;5057132;28;20313;-74
2023/09/04 15:08:14;;;;;;;3.27;1.53;;;;;;;;;;5057473;28;20564;-74
2023/09/04 15:10:41;;;;;;;2.27;1.20;;;;;;;;;;5055592;28;20264;-74
2023/09/04 15:13:08;;;;;;;1.60;1.20;;;;;;;;;;5039472;28;20197;-74
2023/09/04 15:15:36;;;;;;;10.87;6.70;;;;;;;;;;5039551;28;20214;-74
2023/09/04 15:18:03;;;;;;;5.20;2.77;;;;;;;;;;5056451;28;20283;-74
2023/09/04 15:20:30;;;;;;;3.67;1.70;;;;;;;;;;5056879;28;20220;-74
2023/09/04 15:22:57;;;;;;;5.00;1.90;;;;;;;;;;5022664;28;20286;-74
2023/09/04 15:25:25;;;;;;;4.00;2.10;;;;;;;;;;5038915;28;20202;-74
2023/09/04 15:27:51;;;;;;;2.80;1.73;;;;;;;;;;5038935;28;20183;-74
2023/09/04 15:30:19;;;;;;;4.83;1.87;;;;;;;;;;5038912;28;20530;-74
2023/09/04 15:32:48;;;;;;;5.40;1.50;;;;;;;;;;5038321;28;20204;-74
2023/09/04 15:35:15;;;;;;;2.00;1.43;;;;;;;;;;5056569;28;20657;-74
2023/09/04 15:37:42;;;;;;;3.13;1.73;;;;;;;;;;5056359;28;20210;-73
2023/09/04 15:40:10;;;;;;;4.03;1.60;;;;;;;;;;5021907;28;20190;-74
2023/09/04 15:42:37;;;;;;;3.37;1.40;;;;;;;;;;5022460;28;20191;-74
2023/09/04 15:45:04;;;;;;;2.73;1.50;;;;;;;;;;5038749;28;20581;-74
2023/09/04 15:47:33;;;;;;;3.67;1.70;;;;;;;;;;5039176;28;20278;-70
2023/09/04 15:50:04;;;;;;;4.23;1.70;;;;;;;;;;5039956;28;20198;-74
2023/09/04 15:52:31;;;;;;;4.90;1.70;;;;;;;;;;5039279;28;20187;-74
2023/09/04 15:54:58;;;;;;;4.87;2.00;;;;;;;;;;5039889;28;20257;-74
2023/09/04 15:57:25;;;;;;;4.93;2.07;;;;;;;;;;5039206;28;20240;-74
2023/09/04 15:59:52;;;;;;;7.10;2.23;;;;;;;;;;5055776;28;20177;-71
2023/09/04 16:02:19;;;;;;;4.27;1.83;;;;;;;;;;5055822;28;20197;-74
2023/09/04 16:04:46;;;;;;;6.07;1.83;;;;;;;;;;5054758;28;20214;-73
2023/09/04 16:07:13;;;;;;;4.57;2.00;;;;;;;;;;5056251;28;20183;-74
2023/09/04 16:09:41;;;;;;;2.13;1.37;;;;;;;;;;5056243;28;20207;-72
2023/09/04 16:12:08;;;;;;;3.83;1.70;;;;;;;;;;5053788;28;20233;-76
2023/09/04 16:14:35;;;;;;;3.47;1.70;;;;;;;;;;5038550;28;20229;-76
2023/09/04 16:17:20;;;;;;;2.77;1.97;;;;;;;;;;5055627;28;20463;-77
2023/09/04 16:19:48;;;;;;;2.60;1.60;;;;;;;;;;5039168;28;20167;-77
2023/09/04 16:22:16;;;;;;;4.47;1.70;;;;;;;;;;5056432;28;20201;-77
2023/09/04 16:24:45;;;;;;;2.73;1.50;;;;;;;;;;5056959;28;20186;-77
2023/09/04 16:27:12;;;;;;;2.17;1.37;;;;;;;;;;5039409;28;20277;-78
2023/09/04 16:29:57;;;;;;;2.47;1.50;;;;;;;;;;5042058;28;20155;-78
2023/09/04 16:32:25;;;;;;;2.47;1.17;;;;;;;;;;5055176;28;20202;-77
2023/09/04 16:34:52;;;;;;;3.43;1.37;;;;;;;;;;5038304;28;20214;-77
2023/09/04 16:37:20;;;;;;;4.53;1.40;;;;;;;;;;5082819;28;20197;-77
2023/09/04 16:39:48;;;;;;;1.97;1.37;;;;;;;;;;5062191;28;20239;-77
2023/09/04 16:42:16;;;;;;;3.23;1.50;;;;;;;;;;5078757;28;20628;-78
2023/09/04 16:44:43;;;;;;;3.50;1.30;;;;;;;;;;5063487;28;20532;-77
2023/09/04 16:47:11;;;;;;;3.97;1.30;;;;;;;;;;5059406;28;20244;-77
2023/09/04 16:49:38;;;;;;;3.33;1.47;;;;;;;;;;5058296;28;20194;-76
2023/09/04 16:52:06;;;;;;;3.73;1.40;;;;;;;;;;5058125;28;20205;-76
2023/09/04 16:54:35;;;;;;;2.53;1.70;;;;;;;;;;5074661;28;20202;-74
2023/09/04 16:57:06;;;;;;;2.40;1.70;;;;;;;;;;5041384;28;20190;-74
2023/09/04 16:59:33;;;;;;;4.83;2.30;;;;;;;;;;5075400;28;20239;-74
2023/09/04 17:02:00;;;;;;;4.00;1.60;;;;;;;;;;5058611;28;20232;-77
2023/09/04 17:04:44;;;;;;;8.03;1.97;;;;;;;;;;5060648;28;20158;-75
2023/09/04 17:11:10;;;;;;;5.00;3.00;;;;;;;;;;5075074;28;20220;-75
2023/09/04 17:17:36;;;;;;;6.73;3.37;;;;;;;;;;5074690;28;20251;-76
2023/09/04 17:20:05;;;;;;;5.63;3.17;;;;;;;;;;5074455;28;20213;-76
2023/09/04 17:22:32;;;;;;;9.10;3.30;;;;;;;;;;5057649;28;20196;-76
2023/09/04 17:25:01;;;;;;;4.67;2.90;;;;;;;;;;5056889;28;20186;-76
2023/09/04 17:27:30;;;;;;;3.87;2.83;;;;;;;;;;5024897;28;20190;-76
2023/09/04 17:30:01;;;;;;;6.97;3.17;;;;;;;;;;5073553;28;20197;-76
2023/09/04 17:32:28;;;;;;;4.20;2.50;;;;;;;;;;5041290;28;20200;-75
2023/09/04 17:34:55;;;;;;;5.73;3.10;;;;;;;;;;5056979;28;20209;-75
2023/09/04 17:37:22;;;;;;;4.53;2.60;;;;;;;;;;5040607;28;20222;-76
2023/09/04 17:39:58;;;;;;;6.90;2.90;;;;;;;;;;5056624;28;20671;-74
2023/09/04 17:42:25;;;;;;;5.33;2.70;;;;;;;;;;5074124;28;20655;-74
2023/09/04 17:44:53;;;;;;;8.20;3.20;;;;;;;;;;5023787;28;20280;-75
2023/09/04 17:47:19;;;;;;;5.03;2.60;;;;;;;;;;5057459;28;20184;-74
2023/09/04 17:50:04;;;;;;;6.80;2.50;;;;;;;;;;5075361;28;20158;-74
2023/09/04 17:52:31;;;;;;;7.57;2.73;;;;;;;;;;5072206;28;20720;-74
2023/09/04 17:58:51;;;;;;;4.63;2.33;;;;;;;;;;5074113;28;20185;-72
2023/09/04 18:01:19;;;;;;;6.13;2.60;;;;;;;;;;5055928;28;20188;-73
2023/09/04 18:03:46;;;;;;;5.17;2.60;;;;;;;;;;5073557;28;20625;-72
2023/09/04 18:06:13;;;;;;;6.57;2.53;;;;;;;;;;5055609;28;20229;-72
2023/09/04 18:08:40;;;;;;;6.80;2.83;;;;;;;;;;5073646;28;20189;-73
2023/09/04 18:15:07;;;;;;;6.13;2.80;;;;;;;;;;5073698;28;20246;-73
2023/09/04 18:25:45;;;;;;;6.13;2.93;;;;;;;;;;5073570;28;20146;-72
2023/09/04 18:28:13;;;;;;;4.10;3.40;;;;;;;;;;5039795;28;20339;-72
2023/09/04 18:34:40;;;;;;;9.87;4.10;;;;;;;;;;5073618;28;20196;-72
2023/09/04 18:41:07;;;;;;;8.17;3.80;;;;;;;;;;5077683;28;20192;-73
2023/09/04 18:43:35;;;;;;;6.67;3.80;;;;;;;;;;5077033;28;20212;-73
2023/09/04 18:46:06;;;;;;;11.77;3.97;;;;;;;;;;5059840;28;20193;-73
2023/09/04 18:48:34;;;;;;;9.10;3.90;;;;;;;;;;5058756;28;20214;-72
2023/09/04 18:54:17;;;;;;;8.40;4.00;;;;;;;;;;5058924;28;20205;-72
2023/09/04 19:01:03;;;;;;;8.93;4.20;;;;;;;;;;5077685;28;20161;-74
2023/09/04 19:03:33;;;;;;;6.47;4.03;;;;;;;;;;5052745;28;20512;-72
2023/09/04 19:06:02;;;;;;;5.97;4.17;;;;;;;;;;5077380;28;20193;-74